Time;durP1;ratioP1;P1;durP2;ratioP2;P2;SDS_P1;SDS_P2;PMS_P1;PMS_P2;Temp;Humidity;BMP_temperature;BMP_pressure;BME280_temperature;BME280_humidity;BME280_pressure;Samples;Min_cycle;Max_cycle;Signal;HPM_P1;HPM_P2
2022/04/19 00:01:07;;;;;;;1.92;0.82;;;18.70;56.30;;;;;;5014724;28;20030;-58
2022/04/19 00:03:32;;;;;;;1.73;0.70;;;18.70;56.30;;;;;;5020502;28;20079;-58
2022/04/19 00:05:58;;;;;;;3.33;0.80;;;18.70;56.30;;;;;;5015456;28;20104;-57
2022/04/19 00:08:24;;;;;;;1.80;0.70;;;18.70;56.30;;;;;;5014244;28;20044;-57
2022/04/19 00:10:50;;;;;;;3.78;0.85;;;18.70;56.30;;;;;;5015104;28;20490;-57
2022/04/19 00:13:18;;;;;;;4.25;0.95;;;18.70;56.30;;;;;;5017062;28;20121;-58
2022/04/19 00:15:44;;;;;;;3.63;0.90;;;18.60;56.20;;;;;;5010768;28;20021;-57
2022/04/19 00:18:11;;;;;;;2.13;0.70;;;18.70;56.30;;;;;;5016339;28;20076;-57
2022/04/19 00:20:42;;;;;;;2.65;0.65;;;18.60;56.20;;;;;;5013435;28;20045;-57
2022/04/19 00:23:12;;;;;;;2.63;1.00;;;18.60;56.30;;;;;;5014079;28;20529;-57
2022/04/19 00:25:39;;;;;;;1.77;0.60;;;18.60;56.30;;;;;;5015225;28;20406;-58
2022/04/19 00:28:05;;;;;;;2.72;1.00;;;18.60;56.30;;;;;;5014978;28;20398;-58
2022/04/19 00:30:31;;;;;;;3.05;0.85;;;18.60;56.30;;;;;;5017384;28;20022;-57
2022/04/19 00:32:57;;;;;;;1.08;0.60;;;18.60;56.40;;;;;;5011523;28;20030;-57
2022/04/19 00:35:24;;;;;;;2.33;0.70;;;18.60;56.30;;;;;;5017330;28;20620;-57
2022/04/19 00:37:50;;;;;;;2.17;0.80;;;18.50;56.20;;;;;;5019571;28;20521;-57
2022/04/19 00:40:16;;;;;;;2.00;0.88;;;18.60;56.30;;;;;;5020355;28;20076;-58
2022/04/19 00:42:41;;;;;;;2.30;0.90;;;18.50;56.30;;;;;;5023923;28;20093;-57
2022/04/19 00:45:07;;;;;;;2.70;0.82;;;18.60;56.40;;;;;;5019955;28;20033;-58
2022/04/19 00:47:33;;;;;;;2.20;0.80;;;18.50;56.30;;;;;;5016113;28;20096;-58
2022/04/19 00:50:02;;;;;;;2.63;1.00;;;18.50;56.30;;;;;;5012539;28;20034;-57
2022/04/19 00:52:31;;;;;;;1.77;0.88;;;18.50;56.30;;;;;;5011189;28;20076;-58
2022/04/19 00:54:58;;;;;;;3.50;0.80;;;18.50;56.30;;;;;;5012015;28;20072;-58
2022/04/19 00:57:24;;;;;;;3.08;0.73;;;18.50;56.30;;;;;;5015678;28;20038;-58
2022/04/19 00:59:55;;;;;;;2.53;0.65;;;18.50;56.30;;;;;;5017062;28;20039;-58
2022/04/19 01:02:21;;;;;;;2.90;0.68;;;18.50;56.30;;;;;;5010114;28;20125;-57
2022/04/19 01:04:47;;;;;;;1.40;0.60;;;18.50;56.30;;;;;;5015273;28;20096;-57
2022/04/19 01:07:12;;;;;;;0.50;0.50;;;18.50;56.30;;;;;;5012594;28;20026;-58
2022/04/19 01:09:38;;;;;;;3.05;0.80;;;18.50;56.40;;;;;;5015901;28;20018;-57
2022/04/19 01:14:50;;;;;;;2.20;0.70;;;18.40;56.40;;;;;;5016308;28;20037;-57
2022/04/19 01:17:15;;;;;;;2.30;0.63;;;18.40;57.40;;;;;;5010810;28;20033;-58
2022/04/19 01:19:41;;;;;;;2.75;0.82;;;18.40;56.30;;;;;;5020465;28;20091;-58
2022/04/19 01:22:07;;;;;;;2.35;0.80;;;18.40;56.40;;;;;;5008644;28;20022;-56
2022/04/19 01:24:33;;;;;;;2.33;0.75;;;18.40;56.40;;;;;;5014911;28;20491;-58
2022/04/19 01:26:59;;;;;;;4.30;0.93;;;18.40;56.30;;;;;;5017232;28;20033;-57
2022/04/19 01:29:27;;;;;;;2.50;0.70;;;18.40;56.30;;;;;;5011402;28;20038;-57
2022/04/19 01:31:52;;;;;;;1.08;0.60;;;18.40;56.50;;;;;;5011983;28;20383;-57
2022/04/19 01:34:19;;;;;;;2.92;0.70;;;18.40;56.50;;;;;;5025405;28;20029;-57
2022/04/19 01:36:45;;;;;;;1.45;0.70;;;18.30;56.50;;;;;;5023768;28;20030;-57
2022/04/19 01:39:11;;;;;;;2.72;0.73;;;18.30;56.40;;;;;;5018064;28;20037;-57
2022/04/19 01:41:37;;;;;;;2.10;0.57;;;18.30;56.50;;;;;;5017751;28;22225;-57
2022/04/19 01:44:05;;;;;;;1.92;0.50;;;18.30;56.40;;;;;;5015362;28;20064;-58
2022/04/19 01:46:31;;;;;;;0.98;0.60;;;18.30;56.40;;;;;;5013150;28;20462;-57
2022/04/19 01:48:57;;;;;;;1.80;0.57;;;18.30;56.50;;;;;;5017983;28;20061;-57
2022/04/19 01:51:24;;;;;;;0.73;0.50;;;18.30;56.50;;;;;;5015703;28;20062;-57
2022/04/19 01:53:50;;;;;;;1.58;0.70;;;18.30;56.50;;;;;;5018659;28;20056;-57
2022/04/19 01:56:16;;;;;;;2.15;0.68;;;18.30;56.50;;;;;;5015444;28;20594;-57
2022/04/19 01:58:42;;;;;;;0.93;0.50;;;18.30;56.60;;;;;;5017759;28;20069;-57
2022/04/19 02:01:08;;;;;;;2.20;0.77;;;18.30;56.60;;;;;;5024290;28;20028;-57
2022/04/19 02:03:36;;;;;;;2.40;0.63;;;18.30;56.60;;;;;;5019450;28;20026;-57
2022/04/19 02:06:07;;;;;;;1.80;0.80;;;18.30;56.60;;;;;;5021123;28;20026;-58
2022/04/19 02:08:32;;;;;;;1.23;0.60;;;18.30;56.60;;;;;;5020787;28;20379;-57
2022/04/19 02:11:00;;;;;;;0.80;0.55;;;18.30;56.50;;;;;;5013353;28;20032;-57
2022/04/19 02:13:26;;;;;;;2.38;0.73;;;18.20;56.60;;;;;;5014960;28;20034;-57
2022/04/19 02:15:52;;;;;;;1.55;0.60;;;18.20;56.50;;;;;;5018891;28;20404;-58
2022/04/19 02:18:18;;;;;;;1.48;0.60;;;18.20;57.50;;;;;;5017308;28;20034;-56
2022/04/19 02:20:45;;;;;;;1.80;0.50;;;18.20;56.40;;;;;;5016391;28;20026;-57
2022/04/19 02:23:11;;;;;;;2.25;0.70;;;18.20;56.50;;;;;;5019110;28;20056;-57
2022/04/19 02:25:37;;;;;;;1.15;0.57;;;18.20;56.50;;;;;;5014667;28;20237;-57
2022/04/19 02:28:06;;;;;;;1.75;0.70;;;18.20;56.40;;;;;;5017615;28;20036;-57
2022/04/19 02:30:32;;;;;;;1.27;0.52;;;18.20;56.50;;;;;;5018589;28;20128;-57
2022/04/19 02:32:58;;;;;;;1.17;0.52;;;18.20;56.40;;;;;;5015168;28;20100;-58
2022/04/19 02:35:26;;;;;;;2.15;0.70;;;18.20;56.60;;;;;;5012149;28;20122;-57
2022/04/19 02:37:52;;;;;;;1.65;0.60;;;18.20;56.40;;;;;;5014613;28;20104;-58
2022/04/19 02:40:19;;;;;;;2.17;0.63;;;18.20;56.60;;;;;;5021200;28;20501;-58
2022/04/19 02:42:45;;;;;;;1.50;0.47;;;18.20;56.40;;;;;;5017900;28;20037;-57
2022/04/19 02:45:11;;;;;;;1.80;0.47;;;18.10;56.60;;;;;;5014597;28;20030;-57
2022/04/19 02:47:37;;;;;;;1.42;0.50;;;18.20;56.70;;;;;;5015009;28;20522;-58
2022/04/19 02:50:03;;;;;;;2.35;0.60;;;18.10;57.40;;;;;;5012927;28;20033;-57
2022/04/19 02:52:28;;;;;;;2.95;0.52;;;18.10;56.70;;;;;;5016979;28;20038;-58
2022/04/19 02:54:54;;;;;;;1.50;0.65;;;18.10;56.40;;;;;;5016722;28;20775;-57
2022/04/19 02:57:20;;;;;;;1.10;0.57;;;18.10;56.60;;;;;;5018455;28;20116;-57
2022/04/19 02:59:45;;;;;;;1.83;0.70;;;18.10;56.60;;;;;;5015670;28;20120;-57
2022/04/19 03:02:11;;;;;;;1.05;0.50;;;18.10;56.70;;;;;;5013703;28;20108;-57
2022/04/19 03:04:37;;;;;;;1.10;0.50;;;18.10;56.70;;;;;;5017286;28;20033;-57
2022/04/19 03:07:05;;;;;;;1.60;0.60;;;18.10;56.60;;;;;;5021295;28;20084;-56
2022/04/19 03:09:31;;;;;;;1.88;0.45;;;18.10;56.60;;;;;;5018026;28;20056;-57
2022/04/19 03:11:57;;;;;;;1.38;0.60;;;18.00;56.60;;;;;;5014505;28;20232;-57
2022/04/19 03:14:23;;;;;;;2.05;0.70;;;18.10;56.60;;;;;;5016065;28;20029;-58
2022/04/19 03:16:49;;;;;;;2.30;0.60;;;18.10;56.60;;;;;;5013891;28;20029;-57
2022/04/19 03:19:14;;;;;;;2.58;0.77;;;18.10;56.60;;;;;;5019741;28;20040;-57
2022/04/19 03:21:40;;;;;;;0.63;0.52;;;18.00;56.60;;;;;;5016223;28;20034;-58
2022/04/19 03:29:35;;;;;;;1.50;0.47;;;18.00;56.70;;;;;;5016824;28;20040;-58
2022/04/19 03:32:00;;;;;;;1.33;0.60;;;18.00;56.70;;;;;;5015299;28;20109;-57
2022/04/19 03:34:26;;;;;;;2.22;0.60;;;18.00;56.60;;;;;;5015660;28;20037;-57
2022/04/19 03:36:53;;;;;;;0.95;0.40;;;18.00;56.60;;;;;;5022110;28;20029;-57
2022/04/19 03:39:19;;;;;;;2.03;0.50;;;18.00;56.60;;;;;;5013157;28;20414;-57
2022/04/19 03:41:44;;;;;;;1.30;0.60;;;18.00;56.70;;;;;;5016602;28;20053;-57
2022/04/19 03:44:12;;;;;;;0.90;0.45;;;18.00;56.50;;;;;;5021017;28;20025;-57
2022/04/19 03:47:07;;;;;;;1.75;0.60;;;18.00;56.60;;;;;;5020537;28;20218;-57
2022/04/19 03:49:26;;;;;;;1.73;0.60;;;17.90;57.80;;;;;;5015182;28;20040;-57
2022/04/19 03:51:54;;;;;;;2.25;0.73;;;17.90;56.50;;;;;;5020629;28;20013;-57
2022/04/19 03:54:20;;;;;;;1.75;0.50;;;17.90;56.70;;;;;;5019419;28;20506;-58
2022/04/19 03:56:45;;;;;;;1.80;0.57;;;17.90;56.60;;;;;;5019312;28;20041;-57
2022/04/19 03:59:11;;;;;;;0.80;0.50;;;17.90;56.60;;;;;;5014098;28;20522;-58
2022/04/19 04:01:38;;;;;;;0.77;0.45;;;17.90;56.50;;;;;;5010170;28;20104;-57
2022/04/19 04:04:04;;;;;;;1.38;0.50;;;17.90;56.50;;;;;;5024066;28;20040;-58
2022/04/19 04:06:30;;;;;;;2.58;0.57;;;17.90;56.50;;;;;;5017863;28;20026;-58
2022/04/19 04:08:56;;;;;;;1.45;0.70;;;17.90;56.40;;;;;;5022827;28;20037;-57
2022/04/19 04:11:22;;;;;;;1.73;0.52;;;17.90;56.40;;;;;;5018843;28;20037;-57
2022/04/19 04:13:47;;;;;;;1.75;0.70;;;17.80;56.50;;;;;;5020303;28;20038;-57
2022/04/19 04:16:13;;;;;;;2.38;0.77;;;17.90;56.50;;;;;;5016290;28;20096;-57
2022/04/19 04:18:41;;;;;;;1.20;0.50;;;17.80;56.50;;;;;;5017677;28;20133;-57
2022/04/19 04:21:07;;;;;;;1.48;0.50;;;17.80;56.50;;;;;;5028092;28;20232;-57
2022/04/19 04:23:33;;;;;;;1.10;0.60;;;17.80;56.60;;;;;;5018997;28;20398;-57
2022/04/19 04:26:01;;;;;;;0.68;0.50;;;17.80;56.50;;;;;;5019492;28;20401;-57
2022/04/19 04:28:27;;;;;;;2.05;0.50;;;17.80;56.50;;;;;;5015835;28;20110;-57
2022/04/19 04:30:52;;;;;;;2.35;0.57;;;17.80;56.50;;;;;;5026360;28;20057;-57
2022/04/19 04:33:18;;;;;;;1.17;0.50;;;17.80;56.40;;;;;;5018827;28;20025;-57
2022/04/19 04:35:44;;;;;;;2.85;0.65;;;17.80;56.60;;;;;;5024703;28;20025;-57
2022/04/19 04:38:09;;;;;;;2.40;0.75;;;17.80;56.60;;;;;;5017944;28;20478;-57
2022/04/19 04:40:35;;;;;;;0.70;0.50;;;17.80;56.40;;;;;;5011886;28;20845;-57
2022/04/19 04:43:01;;;;;;;2.70;0.80;;;17.70;56.50;;;;;;5020155;28;20033;-57
2022/04/19 04:45:26;;;;;;;1.73;0.70;;;17.80;56.50;;;;;;5016081;28;20030;-57
2022/04/19 04:50:36;;;;;;;2.13;0.52;;;17.80;56.50;;;;;;5023541;28;20076;-58
2022/04/19 04:53:02;;;;;;;1.65;0.40;;;17.70;56.60;;;;;;5019384;28;20042;-57
2022/04/19 04:55:28;;;;;;;1.92;0.70;;;17.70;56.70;;;;;;5019269;28;20033;-58
2022/04/19 04:57:57;;;;;;;0.70;0.50;;;17.80;56.70;;;;;;5017826;28;20663;-57
2022/04/19 05:00:25;;;;;;;1.30;0.60;;;17.70;56.70;;;;;;5018872;28;20038;-57
2022/04/19 05:02:51;;;;;;;1.90;0.52;;;17.70;56.70;;;;;;5017083;28;20041;-58
2022/04/19 05:05:17;;;;;;;3.72;0.95;;;17.80;56.80;;;;;;5023154;28;20033;-58
2022/04/19 05:07:42;;;;;;;2.72;0.70;;;17.80;56.90;;;;;;5020236;28;20065;-57
2022/04/19 05:10:09;;;;;;;1.60;0.70;;;17.80;56.90;;;;;;5013103;28;20076;-58
2022/04/19 05:12:35;;;;;;;3.05;0.82;;;17.80;57.20;;;;;;5022074;28;20037;-57
2022/04/19 05:15:01;;;;;;;4.50;1.00;;;17.80;57.20;;;;;;5025848;28;20108;-57
2022/04/19 05:17:27;;;;;;;5.13;1.00;;;17.80;57.40;;;;;;5022803;28;20112;-58
2022/04/19 05:19:54;;;;;;;7.50;1.20;;;17.80;58.60;;;;;;5019707;28;20163;-57
2022/04/19 05:22:19;;;;;;;5.97;0.88;;;17.80;59.70;;;;;;5020682;28;20383;-57
2022/04/19 05:24:45;;;;;;;4.32;0.90;;;17.80;60.20;;;;;;5023251;28;20099;-58
2022/04/19 05:27:11;;;;;;;4.95;0.90;;;17.80;58.60;;;;;;5018196;28;20025;-58
2022/04/19 05:29:36;;;;;;;6.72;1.15;;;17.80;58.40;;;;;;5020997;28;20033;-58
2022/04/19 05:32:02;;;;;;;7.95;1.27;;;17.80;58.20;;;;;;5018740;28;20033;-58
2022/04/19 05:34:28;;;;;;;5.90;1.10;;;17.80;58.50;;;;;;5024279;28;20029;-58
2022/04/19 05:36:53;;;;;;;5.65;1.13;;;17.80;58.60;;;;;;5017865;28;20030;-58
2022/04/19 05:39:19;;;;;;;2.92;0.70;;;17.70;59.50;;;;;;5015772;28;20042;-58
2022/04/19 05:41:44;;;;;;;5.63;0.90;;;17.80;58.30;;;;;;5018587;28;20045;-58
2022/04/19 05:44:10;;;;;;;5.55;0.80;;;17.80;58.30;;;;;;5014677;28;20402;-58
2022/04/19 05:46:36;;;;;;;4.53;0.98;;;17.80;58.60;;;;;;5014501;28;20636;-58
2022/04/19 05:49:04;;;;;;;6.68;1.17;;;17.80;58.30;;;;;;5021340;28;20041;-57
2022/04/19 05:51:30;;;;;;;6.72;1.10;;;17.70;58.50;;;;;;5016778;28;20110;-58
2022/04/19 05:53:56;;;;;;;4.80;1.00;;;17.70;58.20;;;;;;5012362;28;20083;-58
2022/04/19 05:56:22;;;;;;;4.53;0.90;;;17.70;58.20;;;;;;5017190;28;20434;-58
2022/04/19 05:58:47;;;;;;;5.50;1.08;;;17.70;58.40;;;;;;5014347;28;20030;-58
2022/04/19 06:01:13;;;;;;;4.28;0.93;;;17.70;59.40;;;;;;5019113;28;20043;-58
2022/04/19 06:06:23;;;;;;;5.40;1.00;;;17.70;58.40;;;;;;5017936;28;20530;-58
2022/04/19 06:08:49;;;;;;;7.90;1.00;;;17.70;58.30;;;;;;5020530;28;20021;-58
2022/04/19 06:11:15;;;;;;;4.93;1.05;;;17.70;59.30;;;;;;5017512;28;20056;-58
2022/04/19 06:13:41;;;;;;;3.28;0.70;;;17.70;58.30;;;;;;5013104;28;20522;-57
2022/04/19 06:16:06;;;;;;;3.80;1.00;;;17.70;58.10;;;;;;5022459;28;20034;-58
2022/04/19 06:18:33;;;;;;;5.55;0.98;;;17.70;58.30;;;;;;5022223;28;20100;-58
2022/04/19 06:20:59;;;;;;;3.50;1.02;;;17.70;58.20;;;;;;5018612;28;20041;-57
2022/04/19 06:23:25;;;;;;;3.15;1.02;;;17.70;58.10;;;;;;5020731;28;20032;-58
2022/04/19 06:25:51;;;;;;;6.00;0.85;;;17.70;58.10;;;;;;5018855;28;20025;-58
2022/04/19 06:28:17;;;;;;;2.60;0.93;;;17.70;58.10;;;;;;5016640;28;20041;-58
2022/04/19 06:30:43;;;;;;;3.13;1.00;;;17.60;58.00;;;;;;5027148;28;20072;-58
2022/04/19 06:33:09;;;;;;;3.92;0.82;;;17.70;58.10;;;;;;5024216;28;20056;-58
2022/04/19 06:35:34;;;;;;;4.85;1.17;;;17.60;58.00;;;;;;5019546;28;20042;-58
2022/04/19 06:38:00;;;;;;;6.22;0.95;;;17.60;58.10;;;;;;5014644;28;20400;-58
2022/04/19 06:40:26;;;;;;;2.90;0.90;;;17.60;58.00;;;;;;5018668;28;20072;-58
2022/04/19 06:42:51;;;;;;;4.68;1.10;;;17.60;58.00;;;;;;5026914;28;20034;-58
2022/04/19 06:45:18;;;;;;;3.70;0.90;;;17.60;58.00;;;;;;5015057;28;20462;-58
2022/04/19 06:47:44;;;;;;;4.47;0.80;;;17.60;58.90;;;;;;5020415;28;20099;-58
2022/04/19 06:50:10;;;;;;;1.90;0.70;;;17.60;57.90;;;;;;5015216;28;20021;-59
2022/04/19 06:52:35;;;;;;;4.32;0.85;;;17.60;57.90;;;;;;5021562;28;20087;-58
2022/04/19 06:55:01;;;;;;;3.50;0.75;;;17.60;57.90;;;;;;5028641;28;20091;-58
2022/04/19 06:57:27;;;;;;;5.95;1.02;;;17.60;57.90;;;;;;5016802;28;20038;-58
2022/04/19 06:59:53;;;;;;;4.32;1.00;;;17.60;57.90;;;;;;5023581;28;20049;-58
2022/04/19 07:02:19;;;;;;;3.95;0.80;;;17.60;57.90;;;;;;5020670;28;20405;-57
2022/04/19 07:04:44;;;;;;;1.83;0.70;;;17.60;57.80;;;;;;5014149;28;20248;-58
2022/04/19 07:07:10;;;;;;;2.47;0.77;;;17.60;57.80;;;;;;5028178;28;20022;-58
2022/04/19 07:09:36;;;;;;;3.47;0.98;;;17.60;57.70;;;;;;5018161;28;20040;-58
2022/04/19 07:12:01;;;;;;;2.75;0.88;;;17.60;57.70;;;;;;5021249;28;20087;-58
2022/04/19 07:14:27;;;;;;;5.97;0.88;;;17.60;57.70;;;;;;5015866;28;20510;-58
2022/04/19 07:16:53;;;;;;;4.00;1.00;;;17.60;57.70;;;;;;5017036;28;20042;-58
2022/04/19 07:19:19;;;;;;;2.75;0.75;;;17.60;57.80;;;;;;5015761;28;20041;-58
2022/04/19 07:27:13;;;;;;;2.35;0.90;;;17.60;57.70;;;;;;5016158;28;20084;-58
2022/04/19 07:29:39;;;;;;;3.72;0.88;;;17.60;57.70;;;;;;5021733;28;20025;-57
2022/04/19 07:32:05;;;;;;;4.05;0.98;;;17.60;57.70;;;;;;5024294;28;20532;-58
2022/04/19 07:34:31;;;;;;;2.40;0.90;;;17.60;57.60;;;;;;5014170;28;20045;-58
2022/04/19 07:36:57;;;;;;;2.22;0.70;;;17.60;57.50;;;;;;5022810;28;20030;-58
2022/04/19 07:39:22;;;;;;;4.18;0.85;;;17.70;57.50;;;;;;5011134;28;20041;-58
2022/04/19 07:41:49;;;;;;;3.30;0.90;;;17.60;57.40;;;;;;5025108;28;20013;-58
2022/04/19 07:44:18;;;;;;;3.45;0.73;;;17.60;57.50;;;;;;5012117;28;20498;-58
2022/04/19 07:46:44;;;;;;;5.75;1.02;;;17.60;57.60;;;;;;5015426;28;20053;-58
2022/04/19 07:49:10;;;;;;;2.42;0.88;;;17.60;57.50;;;;;;5014084;28;20034;-58
2022/04/19 07:51:35;;;;;;;3.45;0.68;;;17.70;57.60;;;;;;5014990;28;20029;-58
2022/04/19 07:54:01;;;;;;;3.80;0.88;;;17.70;57.50;;;;;;5027379;28;20032;-58
2022/04/19 07:56:27;;;;;;;1.75;0.60;;;17.70;57.60;;;;;;5019833;28;20064;-58
2022/04/19 07:58:53;;;;;;;4.45;1.00;;;17.60;57.50;;;;;;5013943;28;20057;-58
2022/04/19 08:01:19;;;;;;;2.40;0.80;;;17.70;57.40;;;;;;5027424;28;20038;-57
2022/04/19 08:03:45;;;;;;;2.15;0.80;;;17.70;57.40;;;;;;5029855;28;20048;-58
2022/04/19 08:06:11;;;;;;;3.63;0.88;;;17.80;57.50;;;;;;5020583;28;20491;-58
2022/04/19 08:08:37;;;;;;;4.25;0.90;;;17.70;57.40;;;;;;5024208;28;20032;-58
2022/04/19 08:11:03;;;;;;;2.78;0.63;;;17.80;57.40;;;;;;5016275;28;20045;-57
2022/04/19 08:13:29;;;;;;;1.45;0.70;;;17.80;58.60;;;;;;5016442;28;20026;-58
2022/04/19 08:15:54;;;;;;;3.45;0.63;;;17.80;57.40;;;;;;5018877;28;20034;-58
2022/04/19 08:18:21;;;;;;;2.85;0.80;;;17.80;57.40;;;;;;5018003;28;20038;-57
2022/04/19 08:20:47;;;;;;;3.85;0.85;;;17.80;57.30;;;;;;5025315;28;20034;-58
2022/04/19 08:23:12;;;;;;;2.55;0.63;;;17.80;57.20;;;;;;5016565;28;20026;-58
2022/04/19 08:25:39;;;;;;;2.97;0.77;;;17.80;57.20;;;;;;5017724;28;20040;-56
2022/04/19 08:28:05;;;;;;;3.85;0.77;;;17.90;57.20;;;;;;5028200;28;20065;-58
2022/04/19 08:30:30;;;;;;;3.40;0.70;;;17.90;57.10;;;;;;5019272;28;20068;-59
2022/04/19 08:32:56;;;;;;;4.28;1.05;;;17.90;57.10;;;;;;5019869;28;20036;-58
2022/04/19 08:35:22;;;;;;;2.90;0.70;;;17.90;57.10;;;;;;5018230;28;20036;-57
2022/04/19 08:37:48;;;;;;;2.58;0.70;;;17.90;57.20;;;;;;5016706;28;20594;-58
2022/04/19 08:40:13;;;;;;;2.33;0.70;;;17.90;57.20;;;;;;5021881;28;20034;-58
2022/04/19 08:42:40;;;;;;;4.75;1.13;;;17.90;57.00;;;;;;5031209;28;20021;-58
2022/04/19 08:45:07;;;;;;;1.48;0.68;;;17.90;57.00;;;;;;5032671;28;20044;-57
2022/04/19 08:47:37;;;;;;;3.38;1.00;;;17.90;57.00;;;;;;5025058;28;20100;-58
2022/04/19 08:50:07;;;;;;;1.65;0.70;;;17.90;57.00;;;;;;5030480;28;20018;-58
2022/04/19 08:52:33;;;;;;;3.03;0.90;;;17.90;57.00;;;;;;5014634;28;20080;-58
2022/04/19 08:57:43;;;;;;;1.92;0.70;;;17.90;58.10;;;;;;5029577;28;20041;-58
2022/04/19 09:00:09;;;;;;;2.42;0.90;;;17.90;57.00;;;;;;5020802;28;20033;-58
2022/04/19 09:02:37;;;;;;;3.45;0.90;;;17.90;56.80;;;;;;5025112;28;20110;-58
2022/04/19 09:05:18;;;;;;;2.47;0.80;;;17.90;56.90;;;;;;5024676;28;20506;-58
2022/04/19 09:07:45;;;;;;;3.28;0.80;;;17.90;56.90;;;;;;5013652;28;20425;-58
2022/04/19 09:10:14;;;;;;;2.88;0.68;;;18.00;57.00;;;;;;5026218;28;20025;-58
2022/04/19 09:13:00;;;;;;;3.42;0.73;;;18.00;57.00;;;;;;5023906;28;20092;-57
2022/04/19 09:15:42;;;;;;;2.25;0.65;;;18.00;56.80;;;;;;5019282;28;20025;-58
2022/04/19 09:18:32;;;;;;;2.15;0.60;;;18.00;56.80;;;;;;5027638;28;20036;-58
2022/04/19 09:20:58;;;;;;;1.30;0.60;;;18.00;56.80;;;;;;5028934;28;20397;-58
2022/04/19 09:23:25;;;;;;;4.30;0.80;;;18.00;56.80;;;;;;5026695;28;20020;-58
2022/04/19 09:25:58;;;;;;;3.40;1.00;;;18.00;56.70;;;;;;5022265;28;20574;-58
2022/04/19 09:28:24;;;;;;;2.92;0.70;;;18.10;56.80;;;;;;5013382;28;20025;-57
2022/04/19 09:30:51;;;;;;;1.88;0.70;;;18.10;56.70;;;;;;5023914;28;20038;-58
2022/04/19 09:33:20;;;;;;;3.28;0.80;;;18.00;57.60;;;;;;5023428;28;20026;-58
2022/04/19 09:35:57;;;;;;;2.50;0.80;;;18.10;56.60;;;;;;5024769;28;20513;-58
2022/04/19 09:38:38;;;;;;;3.20;0.77;;;18.10;56.70;;;;;;5018579;28;20038;-57
2022/04/19 09:41:05;;;;;;;1.73;0.70;;;18.10;56.70;;;;;;5019305;28;20060;-57
2022/04/19 09:43:32;;;;;;;2.85;0.80;;;18.10;56.60;;;;;;5016021;28;20030;-58
2022/04/19 09:45:59;;;;;;;2.25;0.70;;;18.10;56.60;;;;;;5028461;28;20367;-58
2022/04/19 09:48:29;;;;;;;2.22;0.65;;;18.10;56.60;;;;;;5027066;28;20092;-58
2022/04/19 09:51:02;;;;;;;2.55;0.80;;;18.10;56.60;;;;;;5021485;28;20024;-58
2022/04/19 09:53:28;;;;;;;2.88;0.70;;;18.10;56.70;;;;;;5021966;28;20038;-58
2022/04/19 09:55:55;;;;;;;1.95;0.70;;;18.20;56.60;;;;;;5014483;28;20502;-58
2022/04/19 09:58:21;;;;;;;2.13;0.77;;;18.20;56.70;;;;;;5025265;28;20022;-58
2022/04/19 10:00:48;;;;;;;1.92;0.70;;;18.20;56.60;;;;;;5022973;28;20052;-57
2022/04/19 10:08:43;;;;;;;2.53;0.60;;;18.20;56.60;;;;;;5016592;28;20032;-58
2022/04/19 10:11:09;;;;;;;1.48;0.68;;;18.20;56.40;;;;;;5012844;28;20030;-57
2022/04/19 10:13:35;;;;;;;2.55;0.68;;;18.20;56.50;;;;;;5015850;28;20038;-58
2022/04/19 10:16:01;;;;;;;2.17;0.80;;;18.20;56.50;;;;;;5025278;28;20293;-58
2022/04/19 10:18:26;;;;;;;1.58;0.60;;;18.30;56.40;;;;;;5015913;28;20042;-58
2022/04/19 10:20:54;;;;;;;3.60;0.70;;;18.30;56.60;;;;;;5017355;28;20437;-58
2022/04/19 10:23:19;;;;;;;2.05;0.50;;;18.30;56.50;;;;;;5019332;28;20025;-58
2022/04/19 10:25:48;;;;;;;3.75;0.50;;;18.30;56.50;;;;;;5055367;28;20099;-58
2022/04/19 10:28:26;;;;;;;2.15;0.60;;;18.30;56.40;;;;;;5017880;28;20375;-58
2022/04/19 10:30:53;;;;;;;1.77;0.52;;;18.30;56.50;;;;;;5027130;28;20163;-58
2022/04/19 10:33:44;;;;;;;3.08;0.80;;;18.30;56.50;;;;;;5019544;28;20034;-58
2022/04/19 10:36:23;;;;;;;7.22;0.80;;;18.30;56.40;;;;;;5016601;28;20057;-58
2022/04/19 10:39:13;;;;;;;2.90;0.70;;;18.40;56.50;;;;;;5020354;28;20029;-58
2022/04/19 10:41:47;;;;;;;1.35;0.60;;;18.40;56.40;;;;;;5021612;28;20573;-58
2022/04/19 10:44:21;;;;;;;2.65;0.70;;;18.40;56.30;;;;;;5016877;28;20029;-58
2022/04/19 10:46:46;;;;;;;3.15;0.65;;;18.40;56.30;;;;;;5012173;28;20045;-57
2022/04/19 10:49:22;;;;;;;0.88;0.52;;;18.40;56.30;;;;;;5013423;28;20040;-58
2022/04/19 10:52:01;;;;;;;3.05;0.60;;;18.40;56.40;;;;;;5026362;28;20037;-58
2022/04/19 10:55:04;;;;;;;1.95;0.60;;;18.40;56.40;;;;;;5027518;28;20083;-58
2022/04/19 11:00:49;;;;;;;1.98;0.77;;;18.50;56.20;;;;;;5026547;28;20045;-58
2022/04/19 11:03:18;;;;;;;2.20;0.73;;;18.50;56.30;;;;;;5020975;28;20026;-58
2022/04/19 11:06:02;;;;;;;2.55;0.68;;;18.50;56.10;;;;;;5021374;28;20030;-58
2022/04/19 11:08:31;;;;;;;3.42;0.70;;;18.50;56.20;;;;;;5015135;28;20034;-58
2022/04/19 11:11:03;;;;;;;2.60;0.60;;;18.50;56.10;;;;;;5018490;28;20030;-58
2022/04/19 11:13:31;;;;;;;2.13;0.68;;;18.50;56.00;;;;;;5016513;28;20034;-58
2022/04/19 11:16:00;;;;;;;4.00;0.65;;;18.50;56.10;;;;;;5013444;28;20092;-58
2022/04/19 11:18:27;;;;;;;2.08;0.70;;;18.60;56.10;;;;;;5017987;28;20030;-58
2022/04/19 11:20:54;;;;;;;2.15;0.90;;;18.60;56.10;;;;;;5026177;28;20021;-58
2022/04/19 11:23:21;;;;;;;3.28;0.73;;;18.60;56.10;;;;;;5029183;28;20025;-58
2022/04/19 11:25:48;;;;;;;1.90;0.68;;;18.60;56.00;;;;;;5012971;28;20030;-57
2022/04/19 11:28:23;;;;;;;2.30;0.77;;;18.60;56.00;;;;;;5021576;28;20049;-58
2022/04/19 11:30:55;;;;;;;2.00;0.60;;;18.60;56.00;;;;;;5017216;28;20033;-58
2022/04/19 11:33:31;;;;;;;1.95;0.63;;;18.70;56.00;;;;;;5030568;28;20030;-58
2022/04/19 11:36:05;;;;;;;1.20;0.50;;;18.70;55.90;;;;;;5024168;28;20040;-58
2022/04/19 11:38:36;;;;;;;2.72;0.60;;;18.70;55.90;;;;;;5016990;28;20030;-58
2022/04/19 11:46:45;;;;;;;2.30;0.80;;;18.70;55.70;;;;;;5046027;28;20541;-58
2022/04/19 11:49:20;;;;;;;1.70;0.50;;;18.80;55.80;;;;;;5045809;28;20037;-58
2022/04/19 11:51:52;;;;;;;2.95;0.60;;;18.80;55.80;;;;;;5058166;28;20056;-58
2022/04/19 11:54:31;;;;;;;1.63;0.60;;;18.80;55.70;;;;;;5053493;28;20132;-58
2022/04/19 11:57:07;;;;;;;1.15;0.50;;;18.90;55.70;;;;;;5057082;28;20032;-58
2022/04/19 11:59:35;;;;;;;2.35;0.70;;;18.90;55.70;;;;;;5052578;28;20505;-58
2022/04/19 12:02:01;;;;;;;1.25;0.50;;;18.90;55.60;;;;;;5054248;28;20149;-58
2022/04/19 12:04:27;;;;;;;2.55;0.68;;;18.90;55.60;;;;;;5062266;28;20090;-58
2022/04/19 12:06:53;;;;;;;1.08;0.60;;;18.90;55.50;;;;;;5053963;28;20496;-58
2022/04/19 12:09:19;;;;;;;2.75;0.60;;;18.90;55.40;;;;;;5053710;28;20566;-58
2022/04/19 12:11:46;;;;;;;2.03;0.52;;;18.90;55.40;;;;;;5059598;28;20036;-58
2022/04/19 12:14:28;;;;;;;1.55;0.60;;;19.00;55.40;;;;;;5052538;28;20040;-58
2022/04/19 12:16:58;;;;;;;2.42;0.70;;;19.00;55.40;;;;;;5058110;28;20021;-58
2022/04/19 12:19:41;;;;;;;1.63;0.50;;;19.00;55.30;;;;;;5051737;28;20037;-58
2022/04/19 12:22:22;;;;;;;2.88;0.73;;;19.00;55.20;;;;;;5019055;28;20079;-58
2022/04/19 12:24:55;;;;;;;1.40;0.50;;;19.10;55.20;;;;;;5024303;28;20097;-58
2022/04/19 12:27:37;;;;;;;1.70;0.60;;;19.10;55.20;;;;;;5024776;28;20107;-58
2022/04/19 12:30:08;;;;;;;2.35;0.60;;;19.20;55.20;;;;;;5030861;28;20037;-58
2022/04/19 12:32:56;;;;;;;1.25;0.60;;;19.20;55.10;;;;;;5024150;28;20432;-58
2022/04/19 12:35:34;;;;;;;1.80;0.65;;;19.20;55.10;;;;;;5012226;28;20529;-58
2022/04/19 12:38:21;;;;;;;2.13;0.60;;;19.20;55.00;;;;;;5014533;28;20034;-58
2022/04/19 12:40:47;;;;;;;0.93;0.50;;;19.30;55.10;;;;;;5011113;28;20147;-58
2022/04/19 12:43:18;;;;;;;2.15;0.60;;;19.30;54.90;;;;;;5012913;28;20495;-58
2022/04/19 12:45:44;;;;;;;1.55;0.60;;;19.30;54.80;;;;;;5020380;28;20100;-58
2022/04/19 12:48:20;;;;;;;2.65;0.65;;;19.40;54.80;;;;;;5015147;28;20505;-58
2022/04/19 12:50:46;;;;;;;2.35;0.55;;;19.40;54.80;;;;;;5018662;28;20060;-58
2022/04/19 12:53:24;;;;;;;1.90;0.45;;;19.40;54.70;;;;;;5011553;28;20037;-58
2022/04/19 12:55:50;;;;;;;3.10;0.82;;;19.40;54.70;;;;;;5010959;28;20526;-58
2022/04/19 12:58:16;;;;;;;1.90;0.70;;;19.40;54.60;;;;;;5017246;28;20041;-58
2022/04/19 13:00:41;;;;;;;1.60;0.50;;;19.50;54.70;;;;;;5021889;28;20033;-58
2022/04/19 13:03:07;;;;;;;1.25;0.50;;;19.50;54.50;;;;;;5013343;28;20030;-58
2022/04/19 13:13:45;;;;;;;1.13;0.40;;;19.60;54.20;;;;;;5011219;28;20033;-58
2022/04/19 13:16:11;;;;;;;2.58;0.63;;;19.60;54.30;;;;;;5022102;28;20033;-58
2022/04/19 13:18:37;;;;;;;2.08;0.50;;;19.70;54.20;;;;;;5026486;28;20037;-58
2022/04/19 13:21:03;;;;;;;2.25;0.60;;;19.70;54.20;;;;;;5021488;28;20029;-58
2022/04/19 13:23:29;;;;;;;0.82;0.50;;;19.70;54.20;;;;;;5021586;28;20036;-58
2022/04/19 13:25:55;;;;;;;1.25;0.50;;;19.80;54.30;;;;;;5013016;28;20398;-58
2022/04/19 13:28:25;;;;;;;1.73;0.60;;;19.80;54.20;;;;;;5012606;28;20058;-58
2022/04/19 13:30:54;;;;;;;1.17;0.60;;;19.80;54.00;;;;;;5033176;28;20033;-58
2022/04/19 13:33:20;;;;;;;1.58;0.45;;;19.80;54.00;;;;;;5022848;28;20096;-58
2022/04/19 13:35:45;;;;;;;2.08;0.60;;;19.90;54.00;;;;;;5021934;28;20912;-58